Air Navigation Services of Czech Republic
Airport: LKNA Updated:  22.11.2017 10:08:05  UTC
 METAR LKNA 22.11. 10:00 ...
METAR LKNA 221000Z 27010KT 9999 FEW016 SCT080 BKN240 08/04 Q1012 NOSIG=
 TAF LKNA 22.11. 05:00 ...
TAF LKNA 220500Z 2206/2306 28010KT CAVOK      TEMPO 2206/2210 BKN020      BECMG 2215/2217 VRB02KT=